createdAt,value
2019-03-27T00:02:23.211Z,94.50
2019-03-27T00:04:53.250Z,94.50
2019-03-27T00:07:23.912Z,94.40
2019-03-27T00:09:54.211Z,94.40
2019-03-27T00:12:24.175Z,94.50
2019-03-27T00:14:54.433Z,94.60
2019-03-27T00:17:24.987Z,94.70
2019-03-27T00:19:55.254Z,94.60
2019-03-27T00:22:25.315Z,94.60
2019-03-27T00:24:55.841Z,94.80
2019-03-27T00:27:25.823Z,94.80
2019-03-27T00:29:56.500Z,94.70
2019-03-27T00:32:27.243Z,94.80
2019-03-27T00:34:57.203Z,95.00
2019-03-27T00:37:27.254Z,94.80
2019-03-27T00:39:57.594Z,94.70
2019-03-27T00:42:27.518Z,94.60
2019-03-27T00:44:57.931Z,94.70
2019-03-27T00:47:28.149Z,94.80
2019-03-27T00:49:58.372Z,95.00
2019-03-27T00:52:28.726Z,94.90
2019-03-27T00:54:59.245Z,95.00
2019-03-27T00:57:29.219Z,95.20
2019-03-27T00:59:59.414Z,95.30
2019-03-27T01:02:29.598Z,95.30
2019-03-27T01:05:00.327Z,95.50
2019-03-27T01:07:30.167Z,95.30
2019-03-27T01:10:00.983Z,95.40
2019-03-27T01:12:30.952Z,95.50
2019-03-27T01:15:00.959Z,95.70
2019-03-27T01:17:31.350Z,95.50
2019-03-27T01:20:01.524Z,95.70
2019-03-27T01:22:31.716Z,95.80
2019-03-27T01:25:05.773Z,95.60
2019-03-27T01:27:35.929Z,95.60
2019-03-27T01:30:06.881Z,95.60
2019-03-27T01:32:36.988Z,95.40
2019-03-27T01:35:07.266Z,95.50
2019-03-27T01:37:37.302Z,95.60
2019-03-27T01:40:07.746Z,95.70
2019-03-27T01:42:37.546Z,95.80
2019-03-27T01:45:08.683Z,95.70
2019-03-27T01:47:38.524Z,95.80
2019-03-27T01:50:08.892Z,95.60
2019-03-27T01:52:38.952Z,95.70
2019-03-27T01:55:08.731Z,95.80
2019-03-27T01:57:39.059Z,95.90
2019-03-27T02:00:09.913Z,95.90
2019-03-27T02:02:39.859Z,95.90
2019-03-27T02:05:09.862Z,96.00
2019-03-27T02:07:39.891Z,96.10
2019-03-27T02:10:11.548Z,96.20
2019-03-27T02:12:41.528Z,96.30
2019-03-27T02:15:12.813Z,96.20
2019-03-27T02:17:43.551Z,96.30
2019-03-27T02:20:13.770Z,96.30
2019-03-27T02:22:44.190Z,96.50
2019-03-27T02:25:13.971Z,96.60
2019-03-27T02:27:44.499Z,96.60
2019-03-27T02:30:15.124Z,96.60
2019-03-27T02:32:44.992Z,96.70
2019-03-27T02:35:15.197Z,96.60
2019-03-27T02:37:45.627Z,96.90
2019-03-27T02:40:15.564Z,96.90
2019-03-27T02:42:45.865Z,96.90
2019-03-27T02:45:16.443Z,97.00
2019-03-27T02:47:46.541Z,97.00
2019-03-27T02:50:16.564Z,97.10
2019-03-27T02:52:47.289Z,97.10
2019-03-27T02:55:17.308Z,96.90
2019-03-27T02:57:47.614Z,97.00
2019-03-27T03:00:18.665Z,97.20
2019-03-27T03:02:48.492Z,97.30
2019-03-27T03:05:18.456Z,97.30
2019-03-27T03:07:48.744Z,97.30
2019-03-27T03:10:19.610Z,97.50
2019-03-27T03:12:49.555Z,97.20
2019-03-27T03:15:22.294Z,97.20
2019-03-27T03:17:52.277Z,97.30
2019-03-27T03:20:22.752Z,97.30
2019-03-27T03:22:53.055Z,97.20
2019-03-27T03:25:23.051Z,97.30
2019-03-27T03:27:52.852Z,97.40
2019-03-27T03:30:24.055Z,97.30
2019-03-27T03:32:53.940Z,97.20
2019-03-27T03:35:23.909Z,97.30
2019-03-27T03:37:54.815Z,97.40
2019-03-27T03:40:24.656Z,97.30
2019-03-27T03:42:54.490Z,97.50
2019-03-27T03:45:25.367Z,97.40
2019-03-27T03:47:55.256Z,97.40
2019-03-27T03:50:42.661Z,97.50
2019-03-27T03:53:13.816Z,97.60
2019-03-27T03:55:44.788Z,97.70
2019-03-27T03:58:16.789Z,97.80
2019-03-27T04:00:47.943Z,97.80
2019-03-27T04:03:18.162Z,97.90
2019-03-27T04:05:51.524Z,98.00
2019-03-27T04:08:21.309Z,98.00
2019-03-27T04:10:51.272Z,98.00
2019-03-27T04:13:21.565Z,98.00
2019-03-27T04:15:51.644Z,97.90
2019-03-27T04:18:21.867Z,98.00
2019-03-27T04:20:52.223Z,97.90
2019-03-27T04:23:22.552Z,97.90
2019-03-27T04:26:08.936Z,98.10
2019-03-27T04:28:25.034Z,97.90
2019-03-27T04:30:54.951Z,98.00
2019-03-27T04:33:24.917Z,97.90
2019-03-27T04:35:55.737Z,98.00
2019-03-27T04:38:25.616Z,98.10
2019-03-27T04:40:55.588Z,98.20
2019-03-27T04:43:25.403Z,98.30
2019-03-27T04:45:55.260Z,98.10
2019-03-27T04:48:25.228Z,98.20
2019-03-27T04:50:55.274Z,98.20
2019-03-27T04:53:25.331Z,98.10
2019-03-27T04:55:55.735Z,98.10
2019-03-27T04:58:26.184Z,98.20
2019-03-27T05:00:56.637Z,98.00
2019-03-27T05:03:27.044Z,97.90
2019-03-27T05:05:57.239Z,97.90
2019-03-27T05:08:27.571Z,98.10
2019-03-27T05:10:57.845Z,98.10
2019-03-27T05:13:28.271Z,98.10
2019-03-27T05:15:59.783Z,98.20
2019-03-27T05:18:29.549Z,98.00
2019-03-27T05:20:59.360Z,98.00
2019-03-27T05:23:29.323Z,98.10
2019-03-27T05:26:02.225Z,98.00
2019-03-27T05:28:32.206Z,98.00
2019-03-27T05:31:02.239Z,98.10
2019-03-27T05:33:33.022Z,98.30
2019-03-27T05:36:02.993Z,98.30
2019-03-27T05:38:33.009Z,98.30
2019-03-27T05:41:04.099Z,98.50
2019-03-27T05:43:33.913Z,98.50
2019-03-27T05:46:03.975Z,98.50
2019-03-27T05:48:34.478Z,98.70
2019-03-27T05:51:04.517Z,98.40
2019-03-27T05:53:34.546Z,98.40
2019-03-27T05:56:05.382Z,98.40
2019-03-27T05:58:35.294Z,98.50
2019-03-27T06:01:05.316Z,98.60
2019-03-27T06:03:35.290Z,98.60
2019-03-27T06:06:05.687Z,98.50
2019-03-27T06:08:35.467Z,98.50
2019-03-27T06:11:05.314Z,98.40
2019-03-27T06:13:35.296Z,98.40
2019-03-27T06:16:05.319Z,98.40
2019-03-27T06:18:35.186Z,98.30
2019-03-27T06:21:05.280Z,98.40
2019-03-27T06:23:35.579Z,98.30
2019-03-27T06:26:05.783Z,98.40
2019-03-27T06:28:36.216Z,98.30
2019-03-27T06:31:05.997Z,98.30
2019-03-27T06:33:36.447Z,98.00
2019-03-27T06:36:06.975Z,98.20
2019-03-27T06:38:37.019Z,98.10
2019-03-27T06:41:07.230Z,98.00
2019-03-27T06:43:37.593Z,98.10
2019-03-27T06:46:07.887Z,98.20
2019-03-27T06:48:38.406Z,98.20
2019-03-27T06:51:08.542Z,98.10
2019-03-27T06:53:38.969Z,97.90
2019-03-27T06:56:08.940Z,98.00
2019-03-27T06:58:53.613Z,97.90
2019-03-27T07:01:11.284Z,97.80
2019-03-27T07:03:41.239Z,97.60
2019-03-27T07:06:11.048Z,97.40
2019-03-27T07:08:41.014Z,97.30
2019-03-27T07:11:10.987Z,97.00
2019-03-27T07:13:40.816Z,97.10
2019-03-27T07:16:11.292Z,97.00
2019-03-27T07:18:41.251Z,96.90
2019-03-27T07:21:12.019Z,97.00
2019-03-27T07:23:41.987Z,97.10
2019-03-27T07:26:12.275Z,97.00
2019-03-27T07:28:42.511Z,96.90
2019-03-27T07:31:12.907Z,96.50
2019-03-27T07:33:42.998Z,96.70
2019-03-27T07:36:13.351Z,96.70
2019-03-27T07:38:44.971Z,96.50
2019-03-27T07:41:14.995Z,96.40
2019-03-27T07:43:45.057Z,96.40
2019-03-27T07:46:15.725Z,96.30
2019-03-27T07:48:53.836Z,96.10
2019-03-27T07:51:16.926Z,96.10
2019-03-27T07:53:47.082Z,96.20
2019-03-27T07:56:17.351Z,95.90
2019-03-27T07:58:49.703Z,95.70
2019-03-27T08:01:19.695Z,95.90
2019-03-27T08:03:49.663Z,96.00
2019-03-27T08:06:20.675Z,96.10
2019-03-27T08:08:50.479Z,95.70
2019-03-27T08:11:20.434Z,96.20
2019-03-27T08:13:51.123Z,95.50
2019-03-27T08:16:21.039Z,95.30
2019-03-27T08:18:50.999Z,94.90
2019-03-27T08:21:22.004Z,94.90
2019-03-27T08:23:51.781Z,94.80
2019-03-27T08:26:24.878Z,94.40
2019-03-27T08:28:55.003Z,93.70
2019-03-27T08:31:25.067Z,94.00
2019-03-27T08:33:54.997Z,94.00
2019-03-27T08:36:24.803Z,93.80
2019-03-27T08:38:54.586Z,93.80
2019-03-27T08:41:24.839Z,93.90
2019-03-27T08:43:54.673Z,93.60
2019-03-27T08:46:24.618Z,93.90
2019-03-27T08:48:54.400Z,93.80
2019-03-27T08:51:25.098Z,93.60
2019-03-27T08:53:54.879Z,93.60
2019-03-27T08:56:25.052Z,94.30
2019-03-27T08:58:55.760Z,93.80
2019-03-27T09:01:25.645Z,93.20
2019-03-27T09:03:55.623Z,93.00
2019-03-27T09:06:33.458Z,92.60
2019-03-27T09:08:57.036Z,92.40
2019-03-27T09:11:27.005Z,92.30
2019-03-27T09:13:57.060Z,91.70
2019-03-27T09:16:27.087Z,91.50
2019-03-27T09:18:57.059Z,90.90
2019-03-27T09:21:27.217Z,90.80
2019-03-27T09:23:57.331Z,90.90
2019-03-27T09:26:27.671Z,90.60
2019-03-27T09:28:57.979Z,90.20
2019-03-27T09:31:28.019Z,89.30
2019-03-27T09:33:58.288Z,88.60
2019-03-27T09:36:28.653Z,88.00
2019-03-27T09:38:58.867Z,88.50
2019-03-27T09:41:29.068Z,88.00
2019-03-27T09:43:59.430Z,89.20
2019-03-27T09:46:29.659Z,88.50
2019-03-27T09:48:59.927Z,88.00
2019-03-27T09:51:30.090Z,86.80
2019-03-27T09:54:00.631Z,87.10
2019-03-27T09:56:30.603Z,86.90
2019-03-27T09:59:00.995Z,85.50
2019-03-27T10:01:31.715Z,86.40
2019-03-27T10:04:01.727Z,85.60
2019-03-27T10:06:32.271Z,85.10
2019-03-27T10:09:02.653Z,84.70
2019-03-27T10:11:33.064Z,84.90
2019-03-27T10:14:03.027Z,84.50
2019-03-27T10:16:33.347Z,84.50
2019-03-27T10:19:03.572Z,84.00
2019-03-27T10:21:33.694Z,84.70
2019-03-27T10:24:06.271Z,85.60
2019-03-27T10:26:36.289Z,85.30
2019-03-27T10:29:06.848Z,85.70
2019-03-27T10:31:36.636Z,85.70
2019-03-27T10:34:06.418Z,85.50
2019-03-27T10:36:36.251Z,85.10
2019-03-27T10:39:07.634Z,86.30
2019-03-27T10:41:37.410Z,84.70
2019-03-27T10:44:07.220Z,85.20
2019-03-27T10:46:37.043Z,85.40
2019-03-27T10:49:07.132Z,84.90
2019-03-27T10:51:37.077Z,84.80
2019-03-27T10:54:07.411Z,85.30
2019-03-27T10:56:38.315Z,85.60
2019-03-27T10:59:09.327Z,85.70
2019-03-27T11:01:39.101Z,84.70
2019-03-27T11:04:08.974Z,84.20
2019-03-27T11:06:39.025Z,82.00
2019-03-27T11:09:12.008Z,82.30
2019-03-27T11:11:41.790Z,83.10
2019-03-27T11:14:11.648Z,81.20
2019-03-27T11:16:41.668Z,82.60
2019-03-27T11:19:11.450Z,82.40
2019-03-27T11:21:41.634Z,82.70
2019-03-27T11:24:11.714Z,82.20
2019-03-27T11:26:42.246Z,82.70
2019-03-27T11:29:12.562Z,82.10
2019-03-27T11:31:42.475Z,81.40
2019-03-27T11:34:12.977Z,81.00
2019-03-27T11:36:43.042Z,81.00
2019-03-27T11:39:13.246Z,81.80
2019-03-27T11:41:43.639Z,79.90
2019-03-27T11:44:13.935Z,80.40
2019-03-27T11:46:44.235Z,80.20
2019-03-27T11:49:14.543Z,79.60
2019-03-27T11:51:44.571Z,78.20
2019-03-27T11:54:15.927Z,77.30
2019-03-27T11:56:45.890Z,78.50
2019-03-27T11:59:16.260Z,77.20
2019-03-27T12:01:46.290Z,77.20
2019-03-27T12:04:16.799Z,77.00
2019-03-27T12:06:47.031Z,77.80
2019-03-27T12:09:17.253Z,77.60
2019-03-27T12:11:47.668Z,78.00
2019-03-27T12:14:17.701Z,79.60
2019-03-27T12:16:50.021Z,80.00
2019-03-27T12:19:19.402Z,80.70
2019-03-27T12:21:49.255Z,81.30
2019-03-27T12:24:19.049Z,82.10
2019-03-27T12:26:50.032Z,80.20
2019-03-27T12:29:20.017Z,78.90
2019-03-27T12:31:49.795Z,77.50
2019-03-27T12:34:19.655Z,77.60
2019-03-27T12:36:50.323Z,76.00
2019-03-27T12:39:20.536Z,76.20
2019-03-27T12:41:51.105Z,75.90
2019-03-27T12:44:21.095Z,76.40
2019-03-27T12:46:52.043Z,76.40
2019-03-27T12:49:22.210Z,75.90
2019-03-27T12:51:52.037Z,75.30
2019-03-27T12:54:21.825Z,75.10
2019-03-27T12:56:52.051Z,74.20
2019-03-27T12:59:22.699Z,74.00
2019-03-27T13:01:52.554Z,74.10
2019-03-27T13:04:22.973Z,75.10
2019-03-27T13:06:53.290Z,75.20
2019-03-27T13:09:24.250Z,75.00
2019-03-27T13:11:54.028Z,76.30
2019-03-27T13:14:23.876Z,75.20
2019-03-27T13:16:53.753Z,74.70
2019-03-27T13:19:23.707Z,75.40
2019-03-27T13:21:53.708Z,75.70
2019-03-27T13:24:23.640Z,76.40
2019-03-27T13:26:54.523Z,75.00
2019-03-27T13:29:24.343Z,74.80
2019-03-27T13:31:54.306Z,73.70
2019-03-27T13:34:24.284Z,71.70
2019-03-27T13:36:54.847Z,70.00
2019-03-27T13:39:25.071Z,69.90
2019-03-27T13:41:54.849Z,68.00
2019-03-27T13:44:36.371Z,69.60
2019-03-27T13:46:57.212Z,70.70
2019-03-27T13:49:27.285Z,70.40
2019-03-27T13:51:57.107Z,71.60
2019-03-27T13:54:27.025Z,73.20
2019-03-27T13:56:57.604Z,72.40
2019-03-27T13:59:27.426Z,72.40
2019-03-27T14:01:57.384Z,72.40
2019-03-27T14:04:27.160Z,71.70
2019-03-27T14:06:56.995Z,71.50
2019-03-27T14:09:27.031Z,72.20
2019-03-27T14:11:57.000Z,72.20
2019-03-27T14:14:27.078Z,72.10
2019-03-27T14:16:57.087Z,72.80
2019-03-27T14:19:27.366Z,73.60
2019-03-27T14:21:57.367Z,73.40
2019-03-27T14:24:27.840Z,73.70
2019-03-27T14:26:57.972Z,73.20
2019-03-27T14:29:28.299Z,74.50
2019-03-27T14:31:58.618Z,73.00
2019-03-27T14:34:29.001Z,71.30
2019-03-27T14:36:59.051Z,71.30
2019-03-27T14:39:29.155Z,72.30
2019-03-27T14:41:59.597Z,72.00
2019-03-27T14:44:29.968Z,72.90
2019-03-27T14:47:00.166Z,72.60
2019-03-27T14:49:32.201Z,72.90
2019-03-27T14:52:08.128Z,72.60
2019-03-27T14:54:34.316Z,73.00
2019-03-27T14:57:04.102Z,73.00
2019-03-27T14:59:33.936Z,72.70
2019-03-27T15:02:04.094Z,73.50
2019-03-27T15:04:33.873Z,75.40
2019-03-27T15:07:04.327Z,73.60
2019-03-27T15:09:34.319Z,75.20
2019-03-27T15:12:04.383Z,73.90
2019-03-27T15:14:34.196Z,72.90
2019-03-27T15:17:03.975Z,72.10
2019-03-27T15:19:33.755Z,71.00
2019-03-27T15:22:03.982Z,71.40
2019-03-27T15:24:34.325Z,70.50
2019-03-27T15:27:04.601Z,70.10
2019-03-27T15:29:35.064Z,70.50
2019-03-27T15:32:05.166Z,71.00
2019-03-27T15:34:35.272Z,71.50
2019-03-27T15:37:05.566Z,71.50
2019-03-27T15:39:35.915Z,71.50
2019-03-27T15:42:09.080Z,71.10
2019-03-27T15:44:37.354Z,71.40
2019-03-27T15:47:07.357Z,71.60
2019-03-27T15:49:37.327Z,72.50
2019-03-27T15:52:07.153Z,73.60
2019-03-27T15:54:37.318Z,74.10
2019-03-27T15:57:07.887Z,74.70
2019-03-27T15:59:38.547Z,74.90
2019-03-27T16:02:08.991Z,75.20
2019-03-27T16:04:39.126Z,74.50
2019-03-27T16:07:09.267Z,75.90
2019-03-27T16:09:39.359Z,75.10
2019-03-27T16:12:09.935Z,75.60
2019-03-27T16:14:40.314Z,75.90
2019-03-27T16:17:13.548Z,76.10
2019-03-27T16:19:41.930Z,75.80
2019-03-27T16:22:11.746Z,77.30
2019-03-27T16:24:41.615Z,75.00
2019-03-27T16:27:11.635Z,76.80
2019-03-27T16:29:41.667Z,75.60
2019-03-27T16:32:12.366Z,75.40
2019-03-27T16:34:42.626Z,75.40
2019-03-27T16:37:12.643Z,75.00
2019-03-27T16:39:42.936Z,75.20
2019-03-27T16:42:14.256Z,75.70
2019-03-27T16:44:44.139Z,76.40
2019-03-27T16:47:13.921Z,76.30
2019-03-27T16:49:44.967Z,75.90
2019-03-27T16:52:14.856Z,75.20
2019-03-27T16:54:45.942Z,74.80
2019-03-27T16:57:16.744Z,75.20
2019-03-27T16:59:47.703Z,75.20
2019-03-27T17:02:18.534Z,75.40
2019-03-27T17:04:48.743Z,75.80
2019-03-27T17:07:19.023Z,76.40
2019-03-27T17:09:49.297Z,77.00
2019-03-27T17:12:19.830Z,77.10
2019-03-27T17:14:50.443Z,76.30
2019-03-27T17:17:20.799Z,76.20
2019-03-27T17:19:50.795Z,76.30
2019-03-27T17:22:20.630Z,76.50
2019-03-27T17:24:50.405Z,76.60
2019-03-27T17:27:22.086Z,76.90
2019-03-27T17:29:51.843Z,77.70
2019-03-27T17:32:22.852Z,77.80
2019-03-27T17:34:54.565Z,77.70
2019-03-27T17:37:24.505Z,77.90
2019-03-27T17:39:54.289Z,77.90
2019-03-27T17:42:25.336Z,78.30
2019-03-27T17:44:55.163Z,78.80
2019-03-27T17:47:25.000Z,78.70
2019-03-27T17:49:55.707Z,79.20
2019-03-27T17:52:26.191Z,79.20
2019-03-27T17:54:56.117Z,80.20
2019-03-27T17:57:26.251Z,80.70
2019-03-27T17:59:56.959Z,82.10
2019-03-27T18:02:27.555Z,82.10
2019-03-27T18:05:16.146Z,81.50
2019-03-27T18:07:45.928Z,82.50
2019-03-27T18:10:17.246Z,82.20
2019-03-27T18:12:47.049Z,82.40
2019-03-27T18:15:17.011Z,82.80
2019-03-27T18:17:47.391Z,83.20
2019-03-27T18:20:17.390Z,83.40
2019-03-27T18:22:47.175Z,84.30
2019-03-27T18:25:16.952Z,84.20
2019-03-27T18:27:48.051Z,84.50
2019-03-27T18:30:20.201Z,84.90
2019-03-27T18:32:50.527Z,85.20
2019-03-27T18:35:20.394Z,85.70
2019-03-27T18:37:50.271Z,85.90
2019-03-27T18:40:20.051Z,86.50
2019-03-27T18:42:49.870Z,86.70
2019-03-27T18:45:20.463Z,87.10
2019-03-27T18:47:50.250Z,87.10
2019-03-27T18:50:20.098Z,87.00
2019-03-27T18:52:49.896Z,86.80
2019-03-27T18:55:26.485Z,87.00
2019-03-27T18:58:00.151Z,87.30
2019-03-27T19:00:23.945Z,87.30
2019-03-27T19:02:53.839Z,87.10
2019-03-27T19:05:23.651Z,87.60
2019-03-27T19:07:54.088Z,88.40
2019-03-27T19:10:23.858Z,88.40
2019-03-27T19:12:54.109Z,88.80
2019-03-27T19:15:25.169Z,89.10
2019-03-27T19:17:54.944Z,89.10
2019-03-27T19:20:24.862Z,88.90
2019-03-27T19:22:54.631Z,90.00
2019-03-27T19:25:24.408Z,89.50
2019-03-27T19:27:54.219Z,89.40
2019-03-27T19:30:24.137Z,89.80
2019-03-27T19:32:53.912Z,90.00
2019-03-27T19:35:24.267Z,90.10
2019-03-27T19:37:54.351Z,90.20
2019-03-27T19:40:24.877Z,90.30
2019-03-27T19:42:54.935Z,90.20
2019-03-27T19:45:25.319Z,90.10
2019-03-27T19:47:55.758Z,90.30
2019-03-27T19:50:25.670Z,90.50
2019-03-27T19:52:56.187Z,91.00
2019-03-27T19:55:26.183Z,90.80
2019-03-27T19:57:56.572Z,90.90
2019-03-27T20:00:27.150Z,90.90
2019-03-27T20:02:57.278Z,91.00
2019-03-27T20:05:27.338Z,91.20
2019-03-27T20:07:57.704Z,91.20
2019-03-27T20:10:27.966Z,91.40
2019-03-27T20:13:00.201Z,91.30
2019-03-27T20:15:30.940Z,92.10
2019-03-27T20:18:01.723Z,91.90
2019-03-27T20:20:31.731Z,91.90
2019-03-27T20:23:14.252Z,92.30
2019-03-27T20:25:33.390Z,92.60
2019-03-27T20:28:04.679Z,92.40
2019-03-27T20:30:34.628Z,92.80
2019-03-27T20:33:05.642Z,92.80
2019-03-27T20:35:35.466Z,93.00
2019-03-27T20:38:05.255Z,92.80
2019-03-27T20:40:35.769Z,93.10
2019-03-27T20:43:06.045Z,93.10
2019-03-27T20:45:36.190Z,93.50
2019-03-27T20:48:06.530Z,93.60
2019-03-27T20:50:36.665Z,93.60
2019-03-27T20:53:06.826Z,93.80
2019-03-27T20:55:37.299Z,94.10
2019-03-27T20:58:07.748Z,94.40
2019-03-27T21:00:38.157Z,94.50
2019-03-27T21:03:08.267Z,95.00
2019-03-27T21:05:39.328Z,94.80
2019-03-27T21:08:09.461Z,95.10
2019-03-27T21:10:39.978Z,95.00
2019-03-27T21:13:10.546Z,95.00
2019-03-27T21:15:41.949Z,94.70
2019-03-27T21:18:12.081Z,94.90
2019-03-27T21:20:43.424Z,95.00
2019-03-27T21:23:13.618Z,94.40
2019-03-27T21:25:44.365Z,94.50
2019-03-27T21:28:16.857Z,94.40
2019-03-27T21:30:47.215Z,94.30
2019-03-27T21:33:17.744Z,94.30
2019-03-27T21:35:49.950Z,94.20
2019-03-27T21:38:21.163Z,94.10
2019-03-27T21:40:51.389Z,94.20
2019-03-27T21:43:21.566Z,94.20
2019-03-27T21:45:52.174Z,94.30
2019-03-27T21:48:22.537Z,94.50
2019-03-27T21:50:54.363Z,94.50
2019-03-27T21:53:25.147Z,94.50
2019-03-27T21:55:56.513Z,94.70
2019-03-27T21:58:26.606Z,94.70
2019-03-27T22:00:56.544Z,94.80
2019-03-27T22:03:26.800Z,94.60
2019-03-27T22:05:56.989Z,94.90
2019-03-27T22:08:27.104Z,95.00
2019-03-27T22:10:57.177Z,95.20
2019-03-27T22:13:27.390Z,95.50
2019-03-27T22:15:57.847Z,95.10
2019-03-27T22:18:29.156Z,94.90
2019-03-27T22:21:00.319Z,95.10
2019-03-27T22:23:31.480Z,95.10
2019-03-27T22:26:01.740Z,94.90
2019-03-27T22:28:32.171Z,95.10
2019-03-27T22:31:03.281Z,95.20
2019-03-27T22:33:33.371Z,95.80
2019-03-27T22:36:03.539Z,96.10
2019-03-27T22:38:34.046Z,96.00
2019-03-27T22:41:06.175Z,96.10
2019-03-27T22:43:37.531Z,96.00
2019-03-27T22:46:07.666Z,95.90
2019-03-27T22:48:39.023Z,95.80
2019-03-27T22:51:08.782Z,95.80
2019-03-27T22:53:38.578Z,95.70
2019-03-27T22:56:08.383Z,95.80
2019-03-27T22:58:38.344Z,95.90
2019-03-27T23:01:08.287Z,96.20
2019-03-27T23:03:38.671Z,96.40
2019-03-27T23:06:09.111Z,96.60
2019-03-27T23:08:39.060Z,96.40
2019-03-27T23:11:09.288Z,96.70
2019-03-27T23:13:39.714Z,96.50
2019-03-27T23:16:10.053Z,96.70
2019-03-27T23:18:40.378Z,96.50
2019-03-27T23:21:10.660Z,96.50
2019-03-27T23:23:40.604Z,96.60
2019-03-27T23:26:12.925Z,96.50
2019-03-27T23:28:42.701Z,96.60
2019-03-27T23:31:13.570Z,96.40
2019-03-27T23:33:43.890Z,96.40
2019-03-27T23:36:13.669Z,96.50
2019-03-27T23:38:43.444Z,96.80
2019-03-27T23:41:13.255Z,96.40
2019-03-27T23:43:43.118Z,96.70
2019-03-27T23:46:13.357Z,96.70
2019-03-27T23:48:43.384Z,96.80
2019-03-27T23:51:13.477Z,97.10
2019-03-27T23:53:43.685Z,97.40
2019-03-27T23:56:16.936Z,97.80
2019-03-27T23:58:45.270Z,97.90
